createdAt,value
2019-03-19T00:01:42.305Z,55.15
2019-03-19T00:04:30.139Z,55.42
2019-03-19T00:07:17.561Z,55.76
2019-03-19T00:10:07.902Z,55.96
2019-03-19T00:12:54.670Z,56.30
2019-03-19T00:15:41.942Z,56.47
2019-03-19T00:18:29.093Z,56.51
2019-03-19T00:21:16.619Z,56.52
2019-03-19T00:24:04.251Z,56.61
2019-03-19T00:26:51.366Z,56.69
2019-03-19T00:29:39.099Z,56.79
2019-03-19T00:32:26.930Z,56.91
2019-03-19T00:35:14.457Z,57.03
2019-03-19T00:38:02.291Z,57.01
2019-03-19T00:40:49.407Z,56.99
2019-03-19T00:43:36.730Z,57.64
2019-03-19T00:46:24.060Z,57.86
2019-03-19T00:49:11.068Z,57.58
2019-03-19T00:51:58.496Z,57.39
2019-03-19T00:54:46.020Z,58.44
2019-03-19T00:57:33.033Z,58.04
2019-03-19T01:00:21.355Z,57.75
2019-03-19T01:03:08.294Z,57.60
2019-03-19T01:05:55.512Z,57.46
2019-03-19T01:08:42.937Z,57.43
2019-03-19T01:11:30.667Z,57.33
2019-03-19T01:14:18.190Z,57.55
2019-03-19T01:17:06.023Z,57.56
2019-03-19T01:19:53.245Z,58.04
2019-03-19T01:22:40.978Z,57.84
2019-03-19T01:25:28.502Z,57.72
2019-03-19T01:28:16.232Z,57.61
2019-03-19T01:31:03.636Z,57.46
2019-03-19T01:33:50.875Z,57.39
2019-03-19T01:36:38.709Z,57.35
2019-03-19T01:39:25.825Z,57.31
2019-03-19T01:42:13.357Z,57.31
2019-03-19T01:45:01.085Z,57.38
2019-03-19T01:47:48.712Z,57.44
2019-03-19T01:50:36.136Z,57.52
2019-03-19T01:53:23.428Z,57.71
2019-03-19T01:56:11.190Z,58.18
2019-03-19T01:58:58.637Z,58.35
2019-03-19T02:01:46.350Z,59.33
2019-03-19T02:04:34.076Z,59.01
2019-03-19T02:07:21.604Z,59.24
2019-03-19T02:10:13.959Z,59.15
2019-03-19T02:13:01.369Z,59.26
2019-03-19T02:15:48.892Z,59.32
2019-03-19T02:18:36.420Z,59.18
2019-03-19T02:21:23.537Z,59.18
2019-03-19T02:24:11.066Z,59.28
2019-03-19T02:26:58.589Z,59.10
2019-03-19T02:29:46.218Z,58.94
2019-03-19T02:32:33.643Z,59.21
2019-03-19T02:35:20.802Z,59.29
2019-03-19T02:38:08.505Z,59.10
2019-03-19T02:40:56.326Z,58.86
2019-03-19T02:43:43.853Z,58.78
2019-03-19T02:46:31.487Z,58.73
2019-03-19T02:49:19.627Z,58.58
2019-03-19T02:52:07.266Z,58.47
2019-03-19T02:54:54.877Z,58.40
2019-03-19T02:57:42.612Z,58.35
2019-03-19T03:00:30.554Z,58.52
2019-03-19T03:03:17.977Z,58.39
2019-03-19T03:06:05.922Z,58.29
2019-03-19T03:08:53.344Z,58.41
2019-03-19T03:11:40.974Z,58.35
2019-03-19T03:14:28.496Z,58.43
2019-03-19T03:17:16.240Z,58.39
2019-03-19T03:20:05.385Z,58.44
2019-03-19T03:22:53.034Z,58.55
2019-03-19T03:25:40.446Z,58.75
2019-03-19T03:28:27.970Z,58.79
2019-03-19T03:31:15.744Z,58.83
2019-03-19T03:34:03.244Z,58.87
2019-03-19T03:36:50.448Z,59.15
2019-03-19T03:39:38.280Z,59.09
2019-03-19T03:42:26.128Z,59.22
2019-03-19T03:45:18.131Z,59.25
2019-03-19T03:48:05.982Z,59.45
2019-03-19T03:50:53.811Z,59.33
2019-03-19T03:53:42.162Z,59.24
2019-03-19T03:56:29.790Z,59.33
2019-03-19T03:59:17.617Z,59.48
2019-03-19T04:02:05.253Z,59.56
2019-03-19T04:04:52.480Z,60.18
2019-03-19T04:07:40.202Z,60.08
2019-03-19T04:10:27.838Z,60.23
2019-03-19T04:13:15.766Z,60.23
2019-03-19T04:16:03.717Z,60.33
2019-03-19T04:18:51.353Z,60.35
2019-03-19T04:21:38.961Z,60.37
2019-03-19T04:24:27.003Z,60.28
2019-03-19T04:27:16.305Z,60.31
2019-03-19T04:30:05.967Z,60.50
2019-03-19T04:32:53.715Z,60.69
2019-03-19T04:35:42.257Z,60.48
2019-03-19T04:38:30.057Z,60.44
2019-03-19T04:41:17.482Z,60.39
2019-03-19T04:44:04.807Z,60.35
2019-03-19T04:46:52.330Z,60.21
2019-03-19T04:49:39.958Z,60.02
2019-03-19T04:52:27.589Z,60.05
2019-03-19T04:55:17.281Z,60.08
2019-03-19T04:58:04.893Z,60.06
2019-03-19T05:00:52.212Z,59.98
2019-03-19T05:03:39.847Z,59.80
2019-03-19T05:06:27.573Z,59.73
2019-03-19T05:09:15.101Z,59.75
2019-03-19T05:12:02.731Z,59.84
2019-03-19T05:14:50.360Z,59.83
2019-03-19T05:17:37.783Z,59.84
2019-03-19T05:20:25.517Z,59.98
2019-03-19T05:23:13.465Z,60.03
2019-03-19T05:26:01.288Z,60.21
2019-03-19T05:28:49.220Z,60.17
2019-03-19T05:31:36.850Z,60.24
2019-03-19T05:34:24.478Z,60.20
2019-03-19T05:37:12.251Z,60.00
2019-03-19T05:39:59.530Z,59.74
2019-03-19T05:42:47.057Z,59.42
2019-03-19T05:45:35.097Z,59.71
2019-03-19T05:48:22.628Z,59.67
2019-03-19T05:51:10.146Z,59.52
2019-03-19T05:53:58.086Z,59.59
2019-03-19T05:56:45.918Z,59.85
2019-03-19T05:59:33.537Z,60.03
2019-03-19T06:02:21.271Z,60.02
2019-03-19T06:05:11.341Z,59.88
2019-03-19T06:07:58.576Z,59.81
2019-03-19T06:10:45.795Z,59.48
2019-03-19T06:13:33.629Z,59.16
2019-03-19T06:16:21.360Z,59.11
2019-03-19T06:19:09.407Z,59.24
2019-03-19T06:21:58.359Z,59.25
2019-03-19T06:24:45.987Z,59.36
2019-03-19T06:27:33.409Z,59.57
2019-03-19T06:30:22.569Z,59.63
2019-03-19T06:33:09.796Z,60.15
2019-03-19T06:35:57.322Z,61.04
2019-03-19T06:38:44.852Z,61.46
2019-03-19T06:41:31.860Z,61.28
2019-03-19T06:44:20.104Z,60.82
2019-03-19T06:47:07.733Z,60.97
2019-03-19T06:49:55.262Z,61.29
2019-03-19T06:52:42.902Z,62.79
2019-03-19T06:55:30.209Z,63.63
2019-03-19T06:58:18.123Z,62.95
2019-03-19T07:01:06.752Z,62.57
2019-03-19T07:03:54.326Z,62.23
2019-03-19T07:06:41.956Z,62.33
2019-03-19T07:09:29.278Z,62.14
2019-03-19T07:12:16.401Z,61.97
2019-03-19T07:15:04.126Z,61.57
2019-03-19T07:17:52.165Z,61.36
2019-03-19T07:20:39.694Z,61.23
2019-03-19T07:23:27.114Z,60.99
2019-03-19T07:26:14.850Z,61.01
2019-03-19T07:29:02.370Z,61.25
2019-03-19T07:31:50.001Z,60.56
2019-03-19T07:34:37.630Z,60.24
2019-03-19T07:37:25.161Z,60.14
2019-03-19T07:40:23.467Z,60.87
2019-03-19T07:43:11.067Z,60.38
2019-03-19T07:45:58.576Z,59.40
2019-03-19T07:48:46.252Z,58.35
2019-03-19T07:51:33.805Z,57.99
2019-03-19T07:54:21.168Z,56.92
2019-03-19T07:57:08.488Z,55.15
2019-03-19T07:59:56.318Z,55.49
2019-03-19T08:02:43.849Z,56.01
2019-03-19T08:05:33.425Z,54.43
2019-03-19T08:08:20.340Z,53.27
2019-03-19T08:11:07.762Z,52.83
2019-03-19T08:13:55.602Z,51.96
2019-03-19T08:16:42.717Z,51.82
2019-03-19T08:19:30.138Z,52.48
2019-03-19T08:22:17.252Z,51.50
2019-03-19T08:25:08.833Z,51.53
2019-03-19T08:27:56.503Z,50.64
2019-03-19T08:30:43.847Z,49.53
2019-03-19T08:33:30.941Z,49.39
2019-03-19T08:36:18.878Z,49.93
2019-03-19T08:39:07.325Z,49.97
2019-03-19T08:41:54.858Z,50.03
2019-03-19T08:44:42.179Z,49.78
2019-03-19T08:47:29.891Z,48.63
2019-03-19T08:50:21.430Z,48.13
2019-03-19T08:53:08.952Z,47.53
2019-03-19T08:55:56.376Z,46.19
2019-03-19T08:58:43.672Z,43.73
2019-03-19T09:01:31.123Z,44.47
2019-03-19T09:04:18.648Z,43.85
2019-03-19T09:07:06.485Z,44.11
2019-03-19T09:09:54.111Z,42.89
2019-03-19T09:12:41.332Z,43.53
2019-03-19T09:15:29.718Z,43.37
2019-03-19T09:18:16.918Z,42.01
2019-03-19T09:21:04.421Z,42.95
2019-03-19T09:23:51.641Z,42.11
2019-03-19T09:26:39.271Z,40.52
2019-03-19T09:29:26.391Z,40.71
2019-03-19T09:32:13.816Z,42.92
2019-03-19T09:35:01.446Z,43.11
2019-03-19T09:37:57.643Z,44.08
2019-03-19T09:40:37.629Z,43.70
2019-03-19T09:43:25.248Z,44.42
2019-03-19T09:46:12.772Z,45.02
2019-03-19T09:49:00.595Z,43.45
2019-03-19T09:51:48.954Z,40.90
2019-03-19T09:54:36.069Z,40.72
2019-03-19T09:57:23.597Z,41.96
2019-03-19T10:00:19.317Z,42.08
2019-03-19T10:03:07.047Z,42.43
2019-03-19T10:05:54.472Z,43.73
2019-03-19T10:08:42.205Z,42.40
2019-03-19T10:11:29.833Z,41.42
2019-03-19T10:14:17.154Z,40.07
2019-03-19T10:17:04.688Z,39.70
2019-03-19T10:19:52.105Z,37.02
2019-03-19T10:22:39.327Z,38.02
2019-03-19T10:25:26.754Z,39.09
2019-03-19T10:28:14.378Z,38.25
2019-03-19T10:31:01.599Z,38.33
2019-03-19T10:33:49.431Z,37.15
2019-03-19T10:36:37.465Z,38.84
2019-03-19T10:39:25.094Z,39.22
2019-03-19T10:42:12.521Z,38.25
2019-03-19T10:45:00.335Z,36.53
2019-03-19T10:47:47.989Z,37.24
2019-03-19T10:50:35.237Z,37.49
2019-03-19T10:53:22.931Z,36.50
2019-03-19T10:56:10.868Z,36.20
2019-03-19T10:58:58.292Z,35.63
2019-03-19T11:01:45.920Z,36.65
2019-03-19T11:04:33.612Z,35.85
2019-03-19T11:07:21.818Z,33.73
2019-03-19T11:10:11.096Z,37.43
2019-03-19T11:12:58.848Z,35.81
2019-03-19T11:15:46.835Z,36.50
2019-03-19T11:18:34.462Z,37.75
2019-03-19T11:21:22.193Z,37.66
2019-03-19T11:24:09.309Z,37.54
2019-03-19T11:26:56.938Z,35.74
2019-03-19T11:29:44.461Z,35.71
2019-03-19T11:32:31.787Z,36.57
2019-03-19T11:35:19.429Z,37.21
2019-03-19T11:38:08.167Z,38.34
2019-03-19T11:40:55.699Z,38.38
2019-03-19T11:43:43.131Z,37.00
2019-03-19T11:46:30.810Z,38.20
2019-03-19T11:49:18.525Z,35.63
2019-03-19T11:52:06.108Z,36.59
2019-03-19T11:54:53.432Z,36.01
2019-03-19T11:57:41.454Z,33.14
2019-03-19T12:00:32.688Z,33.69
2019-03-19T12:03:21.642Z,32.85
2019-03-19T12:06:08.863Z,32.10
2019-03-19T12:08:56.598Z,33.66
2019-03-19T12:11:44.119Z,33.08
2019-03-19T12:14:31.752Z,32.66
2019-03-19T12:17:19.173Z,32.07
2019-03-19T12:20:12.130Z,33.15
2019-03-19T12:22:59.555Z,31.92
2019-03-19T12:25:47.078Z,30.88
2019-03-19T12:28:39.590Z,31.87
2019-03-19T12:31:23.357Z,32.98
2019-03-19T12:34:11.202Z,32.88
2019-03-19T12:36:58.629Z,32.93
2019-03-19T12:39:46.626Z,33.63
2019-03-19T12:42:33.982Z,33.32
2019-03-19T12:45:22.299Z,31.73
2019-03-19T12:48:09.747Z,32.65
2019-03-19T12:50:57.296Z,33.15
2019-03-19T12:53:44.799Z,33.59
2019-03-19T12:56:32.430Z,34.02
2019-03-19T12:59:20.728Z,33.78
2019-03-19T13:02:08.610Z,33.84
2019-03-19T13:04:56.033Z,33.50
2019-03-19T13:07:43.671Z,34.77
2019-03-19T13:10:31.298Z,34.50
2019-03-19T13:13:18.562Z,33.78
2019-03-19T13:16:06.050Z,34.29
2019-03-19T13:18:53.193Z,34.14
2019-03-19T13:21:41.093Z,34.76
2019-03-19T13:24:28.844Z,33.53
2019-03-19T13:27:15.936Z,33.76
2019-03-19T13:30:03.876Z,32.23
2019-03-19T13:32:51.503Z,32.17
2019-03-19T13:35:39.469Z,32.19
2019-03-19T13:38:26.556Z,32.66
2019-03-19T13:41:14.288Z,32.14
2019-03-19T13:44:01.611Z,32.34
2019-03-19T13:46:49.443Z,32.68
2019-03-19T13:49:36.872Z,33.11
2019-03-19T13:52:24.500Z,33.18
2019-03-19T13:55:15.205Z,33.47
2019-03-19T13:58:04.158Z,33.12
2019-03-19T14:00:55.833Z,33.20
2019-03-19T14:03:40.546Z,33.19
2019-03-19T14:06:28.374Z,33.65
2019-03-19T14:09:15.902Z,34.14
2019-03-19T14:12:03.616Z,34.37
2019-03-19T14:14:51.880Z,34.39
2019-03-19T14:17:39.402Z,34.92
2019-03-19T14:20:26.622Z,34.88
2019-03-19T14:23:15.275Z,33.68
2019-03-19T14:26:02.907Z,33.92
2019-03-19T14:28:50.647Z,34.62
2019-03-19T14:31:38.062Z,34.17
2019-03-19T14:34:25.484Z,34.48
2019-03-19T14:37:13.216Z,33.74
2019-03-19T14:40:00.640Z,35.25
2019-03-19T14:42:48.885Z,35.25
2019-03-19T14:45:36.274Z,35.49
2019-03-19T14:48:23.936Z,35.64
2019-03-19T14:51:11.462Z,34.60
2019-03-19T14:53:59.501Z,34.91
2019-03-19T14:56:46.926Z,35.14
2019-03-19T14:59:34.349Z,35.14
2019-03-19T15:02:22.288Z,34.85
2019-03-19T15:05:10.837Z,34.80
2019-03-19T15:07:58.261Z,34.73
2019-03-19T15:10:45.892Z,34.66
2019-03-19T15:13:33.007Z,34.34
2019-03-19T15:16:20.738Z,35.01
2019-03-19T15:19:08.572Z,34.68
2019-03-19T15:21:56.102Z,34.56
2019-03-19T15:24:43.628Z,35.13
2019-03-19T15:27:30.653Z,35.45
2019-03-19T15:30:19.339Z,35.45
2019-03-19T15:33:07.028Z,35.89
2019-03-19T15:35:58.756Z,36.22
2019-03-19T15:38:46.586Z,36.41
2019-03-19T15:41:34.314Z,36.06
2019-03-19T15:44:22.045Z,36.38
2019-03-19T15:47:09.470Z,35.78
2019-03-19T15:49:56.792Z,36.31
2019-03-19T15:52:44.627Z,36.18
2019-03-19T15:55:31.952Z,36.93
2019-03-19T15:58:19.681Z,37.74
2019-03-19T16:01:07.307Z,37.08
2019-03-19T16:03:54.426Z,37.03
2019-03-19T16:06:42.054Z,37.15
2019-03-19T16:09:29.378Z,37.29
2019-03-19T16:12:17.121Z,37.05
2019-03-19T16:15:08.425Z,37.43
2019-03-19T16:17:55.853Z,37.83
2019-03-19T16:20:43.584Z,37.97
2019-03-19T16:23:31.104Z,37.83
2019-03-19T16:26:18.735Z,37.93
2019-03-19T16:29:06.466Z,38.31
2019-03-19T16:31:54.094Z,38.38
2019-03-19T16:34:41.523Z,37.98
2019-03-19T16:37:30.480Z,38.55
2019-03-19T16:40:21.959Z,37.99
2019-03-19T16:43:10.757Z,38.10
2019-03-19T16:45:58.280Z,37.87
2019-03-19T16:48:45.910Z,38.07
2019-03-19T16:51:33.440Z,38.28
2019-03-19T16:54:20.978Z,38.58
2019-03-19T16:57:08.615Z,38.54
2019-03-19T16:59:55.912Z,38.95
2019-03-19T17:02:43.631Z,38.75
2019-03-19T17:05:31.481Z,38.76
2019-03-19T17:08:19.013Z,38.36
2019-03-19T17:11:06.349Z,39.05
2019-03-19T17:13:54.166Z,39.22
2019-03-19T17:16:42.100Z,38.31
2019-03-19T17:19:29.524Z,38.83
2019-03-19T17:22:16.943Z,38.05
2019-03-19T17:25:06.663Z,38.59
2019-03-19T17:27:54.660Z,38.84
2019-03-19T17:30:42.391Z,39.19
2019-03-19T17:33:30.021Z,39.42
2019-03-19T17:36:16.965Z,39.72
2019-03-19T17:39:07.123Z,39.92
2019-03-19T17:41:54.760Z,40.08
2019-03-19T17:44:42.427Z,40.33
2019-03-19T17:47:30.212Z,40.92
2019-03-19T17:50:20.715Z,41.97
2019-03-19T17:53:08.236Z,42.83
2019-03-19T17:55:55.968Z,43.27
2019-03-19T17:58:43.625Z,43.34
2019-03-19T18:01:31.433Z,43.50
2019-03-19T18:04:19.573Z,43.51
2019-03-19T18:07:06.995Z,43.72
2019-03-19T18:09:54.421Z,44.09
2019-03-19T18:12:42.253Z,44.57
2019-03-19T18:15:29.681Z,44.49
2019-03-19T18:18:17.619Z,44.58
2019-03-19T18:21:05.041Z,44.55
2019-03-19T18:23:52.666Z,44.61
2019-03-19T18:26:40.401Z,45.07
2019-03-19T18:29:27.831Z,45.03
2019-03-19T18:32:15.557Z,44.92
2019-03-19T18:35:02.780Z,44.66
2019-03-19T18:37:50.639Z,44.81
2019-03-19T18:40:38.005Z,44.86
2019-03-19T18:43:25.149Z,44.92
2019-03-19T18:46:12.784Z,44.96
2019-03-19T18:49:00.306Z,45.29
2019-03-19T18:51:47.830Z,45.65
2019-03-19T18:54:35.366Z,45.37
2019-03-19T18:57:23.293Z,45.43
2019-03-19T19:00:19.138Z,45.18
2019-03-19T19:03:06.749Z,44.92
2019-03-19T19:05:54.578Z,45.96
2019-03-19T19:08:41.793Z,46.24
2019-03-19T19:11:29.426Z,46.51
2019-03-19T19:14:17.052Z,46.92
2019-03-19T19:17:04.380Z,47.06
2019-03-19T19:19:51.900Z,47.43
2019-03-19T19:22:39.235Z,47.56
2019-03-19T19:25:27.297Z,48.53
2019-03-19T19:28:14.891Z,48.80
2019-03-19T19:31:02.626Z,49.00
2019-03-19T19:33:50.248Z,49.33
2019-03-19T19:36:37.476Z,49.25
2019-03-19T19:39:25.205Z,49.16
2019-03-19T19:42:12.527Z,49.16
2019-03-19T19:45:00.360Z,49.55
2019-03-19T19:47:48.101Z,49.46
2019-03-19T19:50:36.025Z,48.98
2019-03-19T19:53:23.657Z,48.86
2019-03-19T19:56:11.180Z,48.85
2019-03-19T19:58:58.296Z,49.05
2019-03-19T20:01:45.822Z,49.40
2019-03-19T20:04:33.251Z,49.47
2019-03-19T20:07:20.367Z,49.26
2019-03-19T20:10:14.048Z,49.18
2019-03-19T20:13:01.867Z,48.99
2019-03-19T20:15:49.702Z,48.59
2019-03-19T20:18:37.025Z,48.89
2019-03-19T20:21:24.243Z,49.10
2019-03-19T20:24:12.284Z,49.21
2019-03-19T20:27:00.013Z,49.40
2019-03-19T20:29:47.439Z,49.80
2019-03-19T20:32:35.079Z,49.75
2019-03-19T20:35:22.802Z,50.06
2019-03-19T20:38:10.324Z,50.05
2019-03-19T20:40:58.160Z,50.02
2019-03-19T20:43:45.591Z,50.10
2019-03-19T20:46:37.755Z,50.53
2019-03-19T20:49:25.248Z,50.62
2019-03-19T20:52:12.659Z,52.86
2019-03-19T20:55:00.358Z,52.69
2019-03-19T20:57:47.926Z,51.99
2019-03-19T21:00:35.279Z,51.45
2019-03-19T21:03:22.979Z,51.22
2019-03-19T21:06:10.617Z,51.31
2019-03-19T21:08:58.634Z,51.88
2019-03-19T21:11:45.969Z,52.24
2019-03-19T21:14:33.810Z,52.55
2019-03-19T21:17:21.230Z,52.59
2019-03-19T21:20:08.873Z,52.83
2019-03-19T21:23:11.380Z,53.33
2019-03-19T21:26:12.069Z,53.39
2019-03-19T21:29:14.242Z,53.61
2019-03-19T21:32:15.384Z,53.62
2019-03-19T21:35:13.568Z,53.45
2019-03-19T21:38:09.284Z,53.08
2019-03-19T21:40:56.811Z,52.43
2019-03-19T21:43:44.547Z,52.73
2019-03-19T21:46:31.965Z,52.81
2019-03-19T21:49:19.902Z,52.87
2019-03-19T21:52:07.332Z,52.83
2019-03-19T21:54:54.748Z,52.58
2019-03-19T21:57:41.965Z,52.77
2019-03-19T22:00:30.001Z,52.83
2019-03-19T22:03:17.529Z,52.70
2019-03-19T22:06:05.263Z,52.64
2019-03-19T22:08:52.481Z,52.87
2019-03-19T22:11:39.907Z,53.24
2019-03-19T22:14:27.539Z,52.88
2019-03-19T22:17:14.750Z,53.31
2019-03-19T22:20:02.381Z,52.92
2019-03-19T22:22:49.809Z,53.66
2019-03-19T22:25:37.328Z,54.32
2019-03-19T22:28:24.654Z,54.46
2019-03-19T22:31:12.385Z,54.69
2019-03-19T22:33:59.812Z,54.82
2019-03-19T22:36:47.032Z,54.56
2019-03-19T22:39:35.171Z,54.29
2019-03-19T22:42:23.309Z,54.15
2019-03-19T22:45:13.483Z,54.95
2019-03-19T22:48:02.070Z,54.63
2019-03-19T22:50:49.167Z,54.31
2019-03-19T22:53:36.496Z,54.40
2019-03-19T22:56:23.921Z,54.48
2019-03-19T22:59:11.848Z,54.54
2019-03-19T23:01:59.789Z,54.95
2019-03-19T23:04:48.549Z,54.66
2019-03-19T23:07:35.666Z,54.53
2019-03-19T23:10:22.931Z,54.71
2019-03-19T23:13:11.871Z,55.01
2019-03-19T23:15:59.264Z,55.09
2019-03-19T23:18:46.582Z,53.84
2019-03-19T23:21:34.516Z,53.78
2019-03-19T23:24:21.940Z,53.83
2019-03-19T23:27:09.160Z,54.16
2019-03-19T23:29:56.998Z,54.74
2019-03-19T23:32:45.135Z,55.10
2019-03-19T23:35:32.514Z,55.72
2019-03-19T23:38:21.122Z,55.85
2019-03-19T23:41:08.230Z,55.66
2019-03-19T23:43:55.477Z,54.59
2019-03-19T23:46:42.566Z,54.10
2019-03-19T23:49:29.909Z,54.69
2019-03-19T23:52:17.429Z,55.49
2019-03-19T23:55:07.175Z,55.54
2019-03-19T23:57:54.423Z,55.39
